createdAt,value
2018-05-29T00:02:19.437Z,64.29
2018-05-29T00:04:46.886Z,64.20
2018-05-29T00:07:14.280Z,64.32
2018-05-29T00:09:41.681Z,64.49
2018-05-29T00:12:09.097Z,64.54
2018-05-29T00:14:36.503Z,64.54
2018-05-29T00:17:03.913Z,64.67
2018-05-29T00:19:31.321Z,64.91
2018-05-29T00:21:58.737Z,64.73
2018-05-29T00:24:26.145Z,64.77
2018-05-29T00:26:53.550Z,65.13
2018-05-29T00:29:20.957Z,65.39
2018-05-29T00:31:48.357Z,65.52
2018-05-29T00:34:15.748Z,65.78
2018-05-29T00:36:43.165Z,66.03
2018-05-29T00:39:10.557Z,66.22
2018-05-29T00:41:37.969Z,66.20
2018-05-29T00:44:05.373Z,66.32
2018-05-29T00:46:32.777Z,66.26
2018-05-29T00:49:00.177Z,66.47
2018-05-29T00:51:27.609Z,66.39
2018-05-29T00:53:54.993Z,66.80
2018-05-29T00:56:22.405Z,67.08
2018-05-29T00:58:49.805Z,67.69
2018-05-29T01:01:17.209Z,68.67
2018-05-29T01:03:44.605Z,69.18
2018-05-29T01:06:12.021Z,69.36
2018-05-29T01:08:39.417Z,69.62
2018-05-29T01:11:06.813Z,69.91
2018-05-29T01:13:34.225Z,69.83
2018-05-29T01:16:01.617Z,69.75
2018-05-29T01:18:29.022Z,69.90
2018-05-29T01:20:56.442Z,70.00
2018-05-29T01:23:23.837Z,69.84
2018-05-29T01:25:51.237Z,69.47
2018-05-29T01:28:18.646Z,69.22
2018-05-29T01:30:46.045Z,69.23
2018-05-29T01:33:13.440Z,69.50
2018-05-29T01:35:40.882Z,69.13
2018-05-29T01:38:08.278Z,68.89
2018-05-29T01:40:35.681Z,68.60
2018-05-29T01:43:03.086Z,69.06
2018-05-29T01:45:30.486Z,69.16
2018-05-29T01:47:57.881Z,69.36
2018-05-29T01:50:25.281Z,69.55
2018-05-29T01:52:52.681Z,69.51
2018-05-29T01:55:20.077Z,69.57
2018-05-29T01:57:47.481Z,69.54
2018-05-29T02:00:14.879Z,69.52
2018-05-29T02:02:42.302Z,69.40
2018-05-29T02:05:09.726Z,69.34
2018-05-29T02:07:37.129Z,69.39
2018-05-29T02:10:04.533Z,69.44
2018-05-29T02:12:31.934Z,69.33
2018-05-29T02:14:59.345Z,69.53
2018-05-29T02:17:26.747Z,69.62
2018-05-29T02:19:54.146Z,69.82
2018-05-29T02:22:21.545Z,69.77
2018-05-29T02:24:48.941Z,69.81
2018-05-29T02:27:16.357Z,69.77
2018-05-29T02:29:43.749Z,69.71
2018-05-29T02:32:11.146Z,69.63
2018-05-29T02:34:38.553Z,69.47
2018-05-29T02:37:05.945Z,69.62
2018-05-29T02:39:33.353Z,69.66
2018-05-29T02:42:00.768Z,69.73
2018-05-29T02:44:28.155Z,69.92
2018-05-29T02:46:55.566Z,69.99
2018-05-29T02:49:22.965Z,70.06
2018-05-29T02:51:50.372Z,69.98
2018-05-29T02:54:17.769Z,70.16
2018-05-29T02:56:45.169Z,70.01
2018-05-29T02:59:12.577Z,69.76
2018-05-29T03:01:39.981Z,69.96
2018-05-29T03:04:07.384Z,69.84
2018-05-29T03:06:34.826Z,69.82
2018-05-29T03:09:02.212Z,69.69
2018-05-29T03:11:29.625Z,69.91
2018-05-29T03:13:57.024Z,69.85
2018-05-29T03:16:24.429Z,69.64
2018-05-29T03:18:51.829Z,69.81
2018-05-29T03:21:19.225Z,69.57
2018-05-29T03:23:46.634Z,69.60
2018-05-29T03:26:14.033Z,69.70
2018-05-29T03:28:41.447Z,69.70
2018-05-29T03:31:08.839Z,69.67
2018-05-29T03:33:36.241Z,69.67
2018-05-29T03:36:03.648Z,69.74
2018-05-29T03:38:31.045Z,69.83
2018-05-29T03:40:58.468Z,69.82
2018-05-29T03:43:25.872Z,69.78
2018-05-29T03:45:53.269Z,69.86
2018-05-29T03:48:20.699Z,69.88
2018-05-29T03:50:48.106Z,69.89
2018-05-29T03:53:15.519Z,70.33
2018-05-29T03:55:42.917Z,70.39
2018-05-29T03:58:10.325Z,70.29
2018-05-29T04:00:37.725Z,70.22
2018-05-29T04:03:05.145Z,69.86
2018-05-29T04:05:32.553Z,70.14
2018-05-29T04:07:59.950Z,70.29
2018-05-29T04:10:28.193Z,70.51
2018-05-29T04:12:55.678Z,70.44
2018-05-29T04:15:23.132Z,70.55
2018-05-29T04:17:50.887Z,70.75
2018-05-29T04:20:18.867Z,70.79
2018-05-29T04:22:46.261Z,70.76
2018-05-29T04:25:13.677Z,70.98
2018-05-29T04:27:41.079Z,71.10
2018-05-29T04:30:08.481Z,71.17
2018-05-29T04:32:35.878Z,71.20
2018-05-29T04:35:03.276Z,71.50
2018-05-29T04:37:30.687Z,72.47
2018-05-29T04:39:58.081Z,72.56
2018-05-29T04:42:25.889Z,72.38
2018-05-29T04:44:53.285Z,72.62
2018-05-29T04:47:20.689Z,72.77
2018-05-29T04:49:48.094Z,72.32
2018-05-29T04:52:15.493Z,72.25
2018-05-29T04:54:42.901Z,72.22
2018-05-29T04:57:10.305Z,72.50
2018-05-29T04:59:37.713Z,72.40
2018-05-29T05:02:05.117Z,72.11
2018-05-29T05:04:32.509Z,72.21
2018-05-29T05:06:59.957Z,72.53
2018-05-29T05:09:27.342Z,72.38
2018-05-29T05:11:54.737Z,72.03
2018-05-29T05:14:22.137Z,72.26
2018-05-29T05:16:49.537Z,72.60
2018-05-29T05:19:16.945Z,72.68
2018-05-29T05:21:44.349Z,72.86
2018-05-29T05:24:11.742Z,73.13
2018-05-29T05:26:39.145Z,73.24
2018-05-29T05:29:06.545Z,73.43
2018-05-29T05:31:34.052Z,73.36
2018-05-29T05:34:01.477Z,73.39
2018-05-29T05:36:29.093Z,73.67
2018-05-29T05:38:56.498Z,73.79
2018-05-29T05:41:23.904Z,73.69
2018-05-29T05:43:51.309Z,73.71
2018-05-29T05:46:18.706Z,73.89
2018-05-29T05:48:46.114Z,74.14
2018-05-29T05:51:13.513Z,73.69
2018-05-29T05:53:40.905Z,72.79
2018-05-29T05:56:08.316Z,72.20
2018-05-29T05:58:35.709Z,71.73
2018-05-29T06:01:03.118Z,71.45
2018-05-29T06:03:30.537Z,71.55
2018-05-29T06:05:57.929Z,71.27
2018-05-29T06:08:25.338Z,70.98
2018-05-29T06:10:52.741Z,70.58
2018-05-29T06:13:20.153Z,70.67
2018-05-29T06:15:47.553Z,70.76
2018-05-29T06:18:14.962Z,70.91
2018-05-29T06:20:42.363Z,70.98
2018-05-29T06:23:09.769Z,70.52
2018-05-29T06:25:37.171Z,70.09
2018-05-29T06:28:04.573Z,70.62
2018-05-29T06:30:32.037Z,70.18
2018-05-29T06:32:59.436Z,70.09
2018-05-29T06:35:27.229Z,69.21
2018-05-29T06:37:54.623Z,67.58
2018-05-29T06:40:22.017Z,67.94
2018-05-29T06:42:49.430Z,68.73
2018-05-29T06:45:16.837Z,68.85
2018-05-29T06:47:44.477Z,68.47
2018-05-29T06:50:11.877Z,68.83
2018-05-29T06:52:39.299Z,67.88
2018-05-29T06:55:06.684Z,67.54
2018-05-29T06:57:34.077Z,67.42
2018-05-29T07:00:01.483Z,67.08
2018-05-29T07:02:28.877Z,67.56
2018-05-29T07:04:56.289Z,67.46
2018-05-29T07:07:23.718Z,67.32
2018-05-29T07:09:51.097Z,67.35
2018-05-29T07:12:18.550Z,66.76
2018-05-29T07:14:45.972Z,66.40
2018-05-29T07:17:13.389Z,65.81
2018-05-29T07:19:40.788Z,64.33
2018-05-29T07:22:08.197Z,64.56
2018-05-29T07:24:35.628Z,64.64
2018-05-29T07:27:03.003Z,63.75
2018-05-29T07:29:30.413Z,63.83
2018-05-29T07:31:57.813Z,63.76
2018-05-29T07:34:25.500Z,63.81
2018-05-29T07:36:52.886Z,63.77
2018-05-29T07:39:20.285Z,63.62
2018-05-29T07:41:47.693Z,63.69
2018-05-29T07:44:15.105Z,63.54
2018-05-29T07:46:42.817Z,63.62
2018-05-29T07:49:10.221Z,63.62
2018-05-29T07:51:37.627Z,63.06
2018-05-29T07:54:05.026Z,63.25
2018-05-29T07:56:32.424Z,62.91
2018-05-29T07:59:00.164Z,62.60
2018-05-29T08:01:27.549Z,62.11
2018-05-29T08:03:54.945Z,61.95
2018-05-29T08:06:22.370Z,61.92
2018-05-29T08:08:49.748Z,61.32
2018-05-29T08:11:17.165Z,61.57
2018-05-29T08:13:44.561Z,61.52
2018-05-29T08:16:11.966Z,61.77
2018-05-29T08:18:39.396Z,61.40
2018-05-29T08:21:06.761Z,61.05
2018-05-29T08:23:34.541Z,61.12
2018-05-29T08:26:01.933Z,61.20
2018-05-29T08:28:29.337Z,61.55
2018-05-29T08:30:56.760Z,60.76
2018-05-29T08:33:24.149Z,59.85
2018-05-29T08:35:51.556Z,59.20
2018-05-29T08:38:18.963Z,59.32
2018-05-29T08:40:46.357Z,59.03
2018-05-29T08:43:13.767Z,59.62
2018-05-29T08:45:41.186Z,59.06
2018-05-29T08:48:08.591Z,58.52
2018-05-29T08:50:35.986Z,58.80
2018-05-29T08:53:03.391Z,59.03
2018-05-29T08:55:30.781Z,58.65
2018-05-29T08:57:58.185Z,58.33
2018-05-29T09:00:25.582Z,57.97
2018-05-29T09:02:52.977Z,58.51
2018-05-29T09:05:20.386Z,58.29
2018-05-29T09:07:47.785Z,58.23
2018-05-29T09:10:15.189Z,57.57
2018-05-29T09:12:42.585Z,57.73
2018-05-29T09:15:09.995Z,57.78
2018-05-29T09:17:37.399Z,57.98
2018-05-29T09:20:04.827Z,58.65
2018-05-29T09:22:32.202Z,58.25
2018-05-29T09:24:59.598Z,57.75
2018-05-29T09:27:27.000Z,57.48
2018-05-29T09:29:54.418Z,57.39
2018-05-29T09:32:21.822Z,56.81
2018-05-29T09:34:49.222Z,56.85
2018-05-29T09:37:16.625Z,57.15
2018-05-29T09:39:44.048Z,57.00
2018-05-29T09:42:11.437Z,57.30
2018-05-29T09:44:38.881Z,57.16
2018-05-29T09:47:06.247Z,57.50
2018-05-29T09:49:33.649Z,57.40
2018-05-29T09:52:01.051Z,56.43
2018-05-29T09:54:28.487Z,57.49
2018-05-29T09:56:55.845Z,57.88
2018-05-29T09:59:23.262Z,57.71
2018-05-29T10:01:50.673Z,57.11
2018-05-29T10:04:18.072Z,56.76
2018-05-29T10:06:45.481Z,56.70
2018-05-29T10:09:12.882Z,56.72
2018-05-29T10:11:40.278Z,56.29
2018-05-29T10:14:07.685Z,56.31
2018-05-29T10:16:35.081Z,56.77
2018-05-29T10:19:02.497Z,57.55
2018-05-29T10:21:29.912Z,56.39
2018-05-29T10:23:57.679Z,56.07
2018-05-29T10:26:25.070Z,56.42
2018-05-29T10:28:52.469Z,56.87
2018-05-29T10:31:19.873Z,56.86
2018-05-29T10:33:47.274Z,55.94
2018-05-29T10:36:14.692Z,57.31
2018-05-29T10:38:42.082Z,57.02
2018-05-29T10:41:09.489Z,57.08
2018-05-29T10:43:36.881Z,57.71
2018-05-29T10:46:04.307Z,56.65
2018-05-29T10:48:31.683Z,56.73
2018-05-29T10:50:59.134Z,56.03
2018-05-29T10:53:26.933Z,56.63
2018-05-29T10:55:54.329Z,55.29
2018-05-29T10:58:21.721Z,54.26
2018-05-29T11:00:49.590Z,54.10
2018-05-29T11:03:16.986Z,52.91
2018-05-29T11:05:44.389Z,53.26
2018-05-29T11:08:11.814Z,53.62
2018-05-29T11:10:39.215Z,54.69
2018-05-29T11:13:06.609Z,52.65
2018-05-29T11:15:34.019Z,52.12
2018-05-29T11:18:01.421Z,51.84
2018-05-29T11:20:28.817Z,50.46
2018-05-29T11:22:56.232Z,50.80
2018-05-29T11:25:23.626Z,49.06
2018-05-29T11:27:51.373Z,50.26
2018-05-29T11:30:18.765Z,50.60
2018-05-29T11:32:46.168Z,50.85
2018-05-29T11:35:13.582Z,50.58
2018-05-29T11:37:40.978Z,49.89
2018-05-29T11:40:08.377Z,49.87
2018-05-29T11:42:35.787Z,48.75
2018-05-29T11:45:03.197Z,48.80
2018-05-29T11:47:30.596Z,48.12
2018-05-29T11:49:57.985Z,46.82
2018-05-29T11:52:25.405Z,47.03
2018-05-29T11:54:52.833Z,48.17
2018-05-29T11:57:20.193Z,48.15
2018-05-29T11:59:47.841Z,46.41
2018-05-29T12:02:15.338Z,45.76
2018-05-29T12:04:42.737Z,45.88
2018-05-29T12:07:10.133Z,44.92
2018-05-29T12:09:37.602Z,45.04
2018-05-29T12:12:16.797Z,46.21
2018-05-29T12:14:44.553Z,44.91
2018-05-29T12:17:11.951Z,45.45
2018-05-29T12:19:39.341Z,45.59
2018-05-29T12:22:06.761Z,43.74
2018-05-29T12:24:34.170Z,43.64
2018-05-29T12:27:01.577Z,43.55
2018-05-29T12:29:28.969Z,43.28
2018-05-29T12:31:56.383Z,42.69
2018-05-29T12:34:23.823Z,43.61
2018-05-29T12:36:51.177Z,42.46
2018-05-29T12:39:18.577Z,42.12
2018-05-29T12:41:45.981Z,43.32
2018-05-29T12:44:13.407Z,41.50
2018-05-29T12:46:40.833Z,40.83
2018-05-29T12:49:08.237Z,40.55
2018-05-29T12:51:35.655Z,39.42
2018-05-29T12:54:03.047Z,40.22
2018-05-29T12:56:30.465Z,39.81
2018-05-29T12:58:57.857Z,40.57
2018-05-29T13:01:25.261Z,40.47
2018-05-29T13:03:52.654Z,39.56
2018-05-29T13:06:20.054Z,39.85
2018-05-29T13:08:47.468Z,39.28
2018-05-29T13:11:14.930Z,39.80
2018-05-29T13:13:42.270Z,38.92
2018-05-29T13:16:09.679Z,40.10
2018-05-29T13:18:37.081Z,40.13
2018-05-29T13:21:04.476Z,40.22
2018-05-29T13:23:32.183Z,39.77
2018-05-29T13:25:59.581Z,38.85
2018-05-29T13:28:26.973Z,38.60
2018-05-29T13:30:54.388Z,38.09
2018-05-29T13:33:21.788Z,38.90
2018-05-29T13:35:49.185Z,39.68
2018-05-29T13:38:16.583Z,40.85
2018-05-29T13:40:43.987Z,41.27
2018-05-29T13:43:11.382Z,40.79
2018-05-29T13:45:38.864Z,39.64
2018-05-29T13:48:06.250Z,40.25
2018-05-29T13:50:33.694Z,39.90
2018-05-29T13:53:01.114Z,40.02
2018-05-29T13:55:28.501Z,41.06
2018-05-29T13:57:55.911Z,42.20
2018-05-29T14:00:23.298Z,42.56
2018-05-29T14:02:51.055Z,43.17
2018-05-29T14:05:18.449Z,47.38
2018-05-29T14:07:45.915Z,49.88
2018-05-29T14:10:13.317Z,51.32
2018-05-29T14:12:40.721Z,52.75
2018-05-29T14:15:08.129Z,52.54
2018-05-29T14:17:35.525Z,50.51
2018-05-29T14:20:03.236Z,50.08
2018-05-29T14:22:30.646Z,47.39
2018-05-29T14:24:58.037Z,47.49
2018-05-29T14:27:25.430Z,48.10
2018-05-29T14:29:52.921Z,48.13
2018-05-29T14:32:20.348Z,48.46
2018-05-29T14:34:47.734Z,48.55
2018-05-29T14:37:15.133Z,48.31
2018-05-29T14:39:42.528Z,48.25
2018-05-29T14:42:09.925Z,49.01
2018-05-29T14:44:37.317Z,50.53
2018-05-29T14:47:04.741Z,51.40
2018-05-29T14:49:32.142Z,52.63
2018-05-29T14:51:59.533Z,53.32
2018-05-29T14:54:26.937Z,55.00
2018-05-29T14:56:54.370Z,56.69
2018-05-29T14:59:21.765Z,58.97
2018-05-29T15:01:49.169Z,61.12
2018-05-29T15:04:16.565Z,62.68
2018-05-29T15:06:43.977Z,64.59
2018-05-29T15:09:11.442Z,66.08
2018-05-29T15:11:38.781Z,67.54
2018-05-29T15:14:06.189Z,69.19
2018-05-29T15:16:33.582Z,70.20
2018-05-29T15:19:00.993Z,70.85
2018-05-29T15:21:28.396Z,70.14
2018-05-29T15:23:55.782Z,71.22
2018-05-29T15:26:23.181Z,71.36
2018-05-29T15:28:50.573Z,71.01
2018-05-29T15:31:17.971Z,71.46
2018-05-29T15:33:45.353Z,72.49
2018-05-29T15:36:12.758Z,73.08
2018-05-29T15:38:40.148Z,72.96
2018-05-29T15:41:07.527Z,73.52
2018-05-29T15:43:34.933Z,73.46
2018-05-29T15:46:02.327Z,73.28
2018-05-29T15:48:29.950Z,72.76
2018-05-29T15:50:57.379Z,72.80
2018-05-29T15:53:24.793Z,72.04
2018-05-29T15:55:52.193Z,72.18
2018-05-29T15:58:19.590Z,72.01
2018-05-29T16:00:46.986Z,72.41
2018-05-29T16:03:14.373Z,70.89
2018-05-29T16:05:41.775Z,71.02
2018-05-29T16:08:09.213Z,71.69
2018-05-29T16:10:37.005Z,72.21
2018-05-29T16:13:04.392Z,72.29
2018-05-29T16:15:31.781Z,71.68
2018-05-29T16:17:59.176Z,71.42
2018-05-29T16:20:26.561Z,71.67
2018-05-29T16:22:53.969Z,72.18
2018-05-29T16:25:21.373Z,72.70
2018-05-29T16:27:48.765Z,72.71
2018-05-29T16:30:16.153Z,72.50
2018-05-29T16:32:43.576Z,73.10
2018-05-29T16:35:10.965Z,73.16
2018-05-29T16:37:38.369Z,73.24
2018-05-29T16:40:05.759Z,73.83
2018-05-29T16:42:33.168Z,73.59
2018-05-29T16:45:00.575Z,73.06
2018-05-29T16:47:27.969Z,73.33
2018-05-29T16:49:55.373Z,73.27
2018-05-29T16:52:22.781Z,73.85
2018-05-29T16:54:50.182Z,73.82
2018-05-29T16:57:17.589Z,73.51
2018-05-29T16:59:44.993Z,73.08
2018-05-29T17:02:12.389Z,72.86
2018-05-29T17:04:39.859Z,72.92
2018-05-29T17:07:07.232Z,72.68
2018-05-29T17:09:34.609Z,72.70
2018-05-29T17:12:02.017Z,73.27
2018-05-29T17:14:29.419Z,73.84
2018-05-29T17:16:56.817Z,73.68
2018-05-29T17:19:24.273Z,73.69
2018-05-29T17:21:51.689Z,73.66
2018-05-29T17:24:19.107Z,73.19
2018-05-29T17:26:46.501Z,73.17
2018-05-29T17:29:13.905Z,73.33
2018-05-29T17:31:41.302Z,73.48
2018-05-29T17:34:08.709Z,73.27
2018-05-29T17:36:36.100Z,73.05
2018-05-29T17:39:03.523Z,73.49
2018-05-29T17:41:30.910Z,73.22
2018-05-29T17:43:58.357Z,73.09
2018-05-29T17:46:25.756Z,72.79
2018-05-29T17:48:53.425Z,72.88
2018-05-29T17:51:20.821Z,73.07
2018-05-29T17:53:48.217Z,72.66
2018-05-29T17:56:15.639Z,72.67
2018-05-29T17:58:43.025Z,73.07
2018-05-29T18:01:10.429Z,73.57
2018-05-29T18:03:37.829Z,72.75
2018-05-29T18:06:05.236Z,72.66
2018-05-29T18:08:32.625Z,73.30
2018-05-29T18:11:00.037Z,73.64
2018-05-29T18:13:27.429Z,73.85
2018-05-29T18:15:54.841Z,73.58
2018-05-29T18:18:22.249Z,73.71
2018-05-29T18:20:49.707Z,73.71
2018-05-29T18:23:17.065Z,74.04
2018-05-29T18:25:44.461Z,73.94
2018-05-29T18:28:11.865Z,74.24
2018-05-29T18:30:39.277Z,74.62
2018-05-29T18:33:06.691Z,74.53
2018-05-29T18:35:34.081Z,73.90
2018-05-29T18:38:01.481Z,74.20
2018-05-29T18:40:28.901Z,74.66
2018-05-29T18:42:56.293Z,74.17
2018-05-29T18:45:23.707Z,73.94
2018-05-29T18:47:51.114Z,74.35
2018-05-29T18:50:18.601Z,74.33
2018-05-29T18:52:45.929Z,74.62
2018-05-29T18:55:13.675Z,74.28
2018-05-29T18:57:41.150Z,74.61
2018-05-29T19:00:08.540Z,75.07
2018-05-29T19:02:35.963Z,75.55
2018-05-29T19:05:03.401Z,75.57
2018-05-29T19:07:30.807Z,75.86
2018-05-29T19:09:58.241Z,76.07
2018-05-29T19:12:25.641Z,75.90
2018-05-29T19:14:53.942Z,76.03
2018-05-29T19:17:21.355Z,76.05
2018-05-29T19:19:48.761Z,76.00
2018-05-29T19:22:16.184Z,75.86
2018-05-29T19:24:43.586Z,75.10
2018-05-29T19:27:10.982Z,74.51
2018-05-29T19:29:38.387Z,74.70
2018-05-29T19:32:05.781Z,74.17
2018-05-29T19:34:33.185Z,74.01
2018-05-29T19:37:00.585Z,73.89
2018-05-29T19:39:27.980Z,73.74
2018-05-29T19:41:55.410Z,73.41
2018-05-29T19:44:22.823Z,74.00
2018-05-29T19:46:50.217Z,74.38
2018-05-29T19:49:17.637Z,74.75
2018-05-29T19:51:45.042Z,74.87
2018-05-29T19:54:12.421Z,74.34
2018-05-29T19:56:39.834Z,73.34
2018-05-29T19:59:07.226Z,72.40
2018-05-29T20:01:34.869Z,71.18
2018-05-29T20:04:02.257Z,71.42
2018-05-29T20:06:29.653Z,71.99
2018-05-29T20:08:57.053Z,72.76
2018-05-29T20:11:24.446Z,71.80
2018-05-29T20:13:51.838Z,71.10
2018-05-29T20:16:19.233Z,70.78
2018-05-29T20:18:46.681Z,71.80
2018-05-29T20:21:14.067Z,71.53
2018-05-29T20:23:41.498Z,71.31
2018-05-29T20:26:08.911Z,71.78
2018-05-29T20:28:36.277Z,72.07
2018-05-29T20:31:03.689Z,70.90
2018-05-29T20:33:31.069Z,70.25
2018-05-29T20:35:58.472Z,70.55
2018-05-29T20:38:25.881Z,71.94
2018-05-29T20:40:53.261Z,72.54
2018-05-29T20:43:20.661Z,71.75
2018-05-29T20:45:48.061Z,71.24
2018-05-29T20:48:15.452Z,71.86
2018-05-29T20:50:42.837Z,72.71
2018-05-29T20:53:10.237Z,72.59
2018-05-29T20:55:37.626Z,72.56
2018-05-29T20:58:05.027Z,73.07
2018-05-29T21:00:32.422Z,72.57
2018-05-29T21:02:59.831Z,72.36
2018-05-29T21:05:27.213Z,71.78
2018-05-29T21:07:54.617Z,71.76
2018-05-29T21:10:22.005Z,71.26
2018-05-29T21:12:49.404Z,70.94
2018-05-29T21:15:16.805Z,71.05
2018-05-29T21:17:44.217Z,70.97
2018-05-29T21:20:11.617Z,71.08
2018-05-29T21:22:39.011Z,71.15
2018-05-29T21:25:06.407Z,71.05
2018-05-29T21:27:33.797Z,71.00
2018-05-29T21:30:01.574Z,71.25
2018-05-29T21:32:29.011Z,70.87
2018-05-29T21:34:56.396Z,71.01
2018-05-29T21:37:23.788Z,71.39
2018-05-29T21:39:51.177Z,71.09
2018-05-29T21:42:18.583Z,71.12
2018-05-29T21:44:45.961Z,71.54
2018-05-29T21:47:13.382Z,71.71
2018-05-29T21:49:40.776Z,71.84
2018-05-29T21:52:08.505Z,72.23
2018-05-29T21:54:35.888Z,72.17
2018-05-29T21:57:03.277Z,71.93
2018-05-29T21:59:30.673Z,71.86
2018-05-29T22:01:58.064Z,71.11
2018-05-29T22:04:25.465Z,71.06
2018-05-29T22:06:52.909Z,70.75
2018-05-29T22:09:20.338Z,70.83
2018-05-29T22:11:47.729Z,71.29
2018-05-29T22:14:15.134Z,71.20
2018-05-29T22:16:42.525Z,71.43
2018-05-29T22:19:09.909Z,71.61
2018-05-29T22:21:37.320Z,71.75
2018-05-29T22:24:04.707Z,71.40
2018-05-29T22:26:32.105Z,71.89
2018-05-29T22:28:59.497Z,71.48
2018-05-29T22:31:26.889Z,71.35
2018-05-29T22:33:54.273Z,71.20
2018-05-29T22:36:21.669Z,71.04
2018-05-29T22:38:49.062Z,71.37
2018-05-29T22:41:16.754Z,72.23
2018-05-29T22:43:44.141Z,72.19
2018-05-29T22:46:11.582Z,72.50
2018-05-29T22:48:38.983Z,72.79
2018-05-29T22:51:06.361Z,73.11
2018-05-29T22:53:33.800Z,72.87
2018-05-29T22:56:01.189Z,72.79
2018-05-29T22:58:28.592Z,73.26
2018-05-29T23:00:55.990Z,73.21
2018-05-29T23:03:23.394Z,72.81
2018-05-29T23:05:50.779Z,72.26
2018-05-29T23:08:18.177Z,72.82
2018-05-29T23:10:45.581Z,73.26
2018-05-29T23:13:12.969Z,73.43
2018-05-29T23:15:40.365Z,73.66
2018-05-29T23:18:07.749Z,73.90
2018-05-29T23:20:35.149Z,73.99
2018-05-29T23:23:02.558Z,74.06
2018-05-29T23:25:29.957Z,73.90
2018-05-29T23:27:57.347Z,73.97
2018-05-29T23:30:25.117Z,73.91
2018-05-29T23:32:52.501Z,73.31
2018-05-29T23:35:19.889Z,73.16
2018-05-29T23:37:47.289Z,73.51
2018-05-29T23:40:14.677Z,73.87
2018-05-29T23:42:42.077Z,74.02
2018-05-29T23:45:09.465Z,74.16
2018-05-29T23:47:36.865Z,74.21
2018-05-29T23:50:04.257Z,74.34
2018-05-29T23:52:31.660Z,74.34
2018-05-29T23:54:59.057Z,74.19
2018-05-29T23:57:26.449Z,74.24
2018-05-29T23:59:53.849Z,74.25
